Time,TemperatureF,DewpointF,PressureIn,WindDirection,WindDirectionDegrees,WindSpeedMPH,WindSpeedGustMPH,Humidity,HourlyPrecipIn,Conditions,Clouds,dailyrainin,SoftwareType,DateUTC
2013-05-23 00:02:00,62.0,59.0,-100.00,SW,235,2.0,12.0,90,-99.99,,,-99.99,,2013-05-23 05:02:00,
2013-05-23 00:11:00,63.0,59.0,-100.00,WSW,245,1.0,14.0,89,-99.99,,,-99.99,,2013-05-23 05:11:00,
2013-05-23 00:22:00,63.0,59.0,-100.00,WSW,245,1.0,14.0,89,-99.99,,,-99.99,,2013-05-23 05:22:00,
2013-05-23 00:32:00,63.0,59.0,-100.00,SW,235,1.0,14.0,89,-99.99,,,-99.99,,2013-05-23 05:32:00,
2013-05-23 00:42:00,62.0,59.0,-100.00,WSW,255,2.0,15.0,89,-99.99,,,-99.99,,2013-05-23 05:42:00,
2013-05-23 00:52:00,62.0,59.0,-100.00,WSW,255,2.0,15.0,89,-99.99,,,-99.99,,2013-05-23 05:52:00,
2013-05-23 01:02:00,62.0,58.0,-100.00,WSW,250,1.0,15.0,88,-99.99,,,-99.99,,2013-05-23 06:02:00,
2013-05-23 01:12:00,62.0,58.0,-100.00,WSW,245,1.0,14.0,89,-99.99,,,-99.99,,2013-05-23 06:12:00,
2013-05-23 01:21:00,62.0,58.0,-100.00,WSW,245,1.0,14.0,89,-99.99,,,-99.99,,2013-05-23 06:21:00,
2013-05-23 01:32:00,61.0,58.0,-100.00,West,275,5.0,15.0,90,-99.99,,,-99.99,,2013-05-23 06:32:00,
2013-05-23 01:42:00,61.0,58.0,-100.00,SW,230,1.0,11.0,90,-99.99,,,-99.99,,2013-05-23 06:42:00,
2013-05-23 01:52:00,61.0,58.0,-100.00,SW,230,1.0,11.0,90,-99.99,,,-99.99,,2013-05-23 06:52:00,
2013-05-23 02:02:00,60.0,57.0,-100.00,SW,230,1.0,12.0,90,-99.99,,,-99.99,,2013-05-23 07:02:00,
2013-05-23 02:11:00,60.0,57.0,-100.00,WSW,250,2.0,11.0,91,-99.99,,,-99.99,,2013-05-23 07:11:00,
2013-05-23 02:21:00,60.0,57.0,-100.00,WSW,250,2.0,11.0,91,-99.99,,,-99.99,,2013-05-23 07:21:00,
2013-05-23 02:32:00,60.0,57.0,-100.00,WSW,245,1.0,13.0,92,-99.99,,,-99.99,,2013-05-23 07:32:00,
2013-05-23 02:42:00,60.0,58.0,-100.00,WSW,250,2.0,14.0,93,-99.99,,,-99.99,,2013-05-23 07:42:00,
2013-05-23 02:59:00,60.0,58.0,-100.00,WSW,250,2.0,14.0,93,-99.99,,,-99.99,,2013-05-23 07:59:00,
2013-05-23 03:11:00,60.0,57.0,-100.00,WSW,245,1.0,11.0,92,-99.99,,,-99.99,,2013-05-23 08:11:00,
2013-05-23 03:22:00,60.0,57.0,-100.00,WSW,245,1.0,11.0,92,-99.99,,,-99.99,,2013-05-23 08:22:00,
2013-05-23 03:32:00,59.0,57.0,-100.00,SW,230,1.0,13.0,92,-99.99,,,-99.99,,2013-05-23 08:32:00,
2013-05-23 03:42:00,59.0,57.0,-100.00,SW,235,0.0,10.0,93,-99.99,,,-99.99,,2013-05-23 08:42:00,
2013-05-23 03:52:00,59.0,57.0,-100.00,SW,235,0.0,10.0,93,-99.99,,,-99.99,,2013-05-23 08:52:00,
2013-05-23 04:01:00,59.0,57.0,-100.00,West,260,1.0,11.0,93,-99.99,,,-99.99,,2013-05-23 09:01:00,
2013-05-23 04:11:00,59.0,57.0,-100.00,West,260,1.0,11.0,93,-99.99,,,-99.99,,2013-05-23 09:11:00,
2013-05-23 04:21:00,59.0,57.0,-100.00,West,260,1.0,11.0,93,-99.99,,,-99.99,,2013-05-23 09:21:00,
2013-05-23 04:33:00,59.0,57.0,-100.00,West,265,1.0,14.0,93,-99.99,,,-99.99,,2013-05-23 09:33:00,
2013-05-23 04:42:00,59.0,57.0,-100.00,WSW,250,1.0,11.0,92,-99.99,,,-99.99,,2013-05-23 09:42:00,
2013-05-23 04:53:00,59.0,57.0,-100.00,WSW,250,1.0,11.0,92,-99.99,,,-99.99,,2013-05-23 09:53:00,
2013-05-23 05:02:00,59.0,57.0,-100.00,WSW,250,0.0,11.0,93,-99.99,,,-99.99,,2013-05-23 10:02:00,
2013-05-23 05:12:00,59.0,57.0,-100.00,WSW,250,0.0,11.0,93,-99.99,,,-99.99,,2013-05-23 10:12:00,
2013-05-23 05:22:00,59.0,57.0,-100.00,WSW,250,0.0,11.0,93,-99.99,,,-99.99,,2013-05-23 10:22:00,
2013-05-23 05:32:00,59.0,57.0,-100.00,WSW,245,3.0,13.0,93,-99.99,,,-99.99,,2013-05-23 10:32:00,
2013-05-23 05:42:00,59.0,57.0,-100.00,SW,235,1.0,13.0,93,-99.99,,,-99.99,,2013-05-23 10:42:00,
2013-05-23 05:52:00,59.0,57.0,-100.00,SW,235,1.0,13.0,93,-99.99,,,-99.99,,2013-05-23 10:52:00,
2013-05-23 06:02:00,59.0,58.0,-100.00,WNW,285,1.0,17.0,94,-99.99,,,-99.99,,2013-05-23 11:02:00,
2013-05-23 06:11:00,59.0,57.0,-100.00,SW,235,1.0,15.0,94,-99.99,,,-99.99,,2013-05-23 11:11:00,
2013-05-23 06:22:00,59.0,57.0,-100.00,SW,235,1.0,15.0,94,-99.99,,,-99.99,,2013-05-23 11:22:00,
2013-05-23 06:32:00,59.0,58.0,-100.00,WSW,245,2.0,11.0,95,-99.99,,,-99.99,,2013-05-23 11:32:00,
2013-05-23 06:42:00,59.0,58.0,-100.00,WSW,250,1.0,14.0,95,-99.99,,,-99.99,,2013-05-23 11:42:00,
2013-05-23 06:52:00,59.0,58.0,-100.00,WSW,250,1.0,14.0,95,-99.99,,,-99.99,,2013-05-23 11:52:00,
2013-05-23 07:01:00,59.0,58.0,-100.00,West,265,1.0,9.0,95,-99.99,,,-99.99,,2013-05-23 12:01:00,
2013-05-23 07:11:00,59.0,58.0,-100.00,West,260,4.0,13.0,95,-99.99,,,-99.99,,2013-05-23 12:11:00,
2013-05-23 07:21:00,59.0,58.0,-100.00,West,260,4.0,13.0,95,-99.99,,,-99.99,,2013-05-23 12:21:00,
2013-05-23 07:32:00,59.0,58.0,-100.00,WSW,245,4.0,16.0,95,-99.99,,,-99.99,,2013-05-23 12:32:00,
2013-05-23 07:42:00,59.0,58.0,-100.00,West,270,4.0,14.0,95,-99.99,,,-99.99,,2013-05-23 12:42:00,
2013-05-23 07:52:00,59.0,58.0,-100.00,West,270,4.0,14.0,95,-99.99,,,-99.99,,2013-05-23 12:52:00,
2013-05-23 08:01:00,59.0,58.0,-100.00,SW,225,1.0,16.0,95,-99.99,,,-99.99,,2013-05-23 13:01:00,
2013-05-23 08:11:00,59.0,58.0,-100.00,SSW,210,6.0,16.0,96,-99.99,,,-99.99,,2013-05-23 13:11:00,
2013-05-23 08:22:00,59.0,58.0,-100.00,SSW,210,6.0,16.0,96,-99.99,,,-99.99,,2013-05-23 13:22:00,
2013-05-23 08:32:00,59.0,58.0,-100.00,WSW,245,2.0,14.0,97,-99.99,,,-99.99,,2013-05-23 13:32:00,
2013-05-23 08:42:00,59.0,59.0,-100.00,SW,235,2.0,13.0,99,-99.99,,,-99.99,,2013-05-23 13:42:00,
2013-05-23 08:52:00,59.0,59.0,-100.00,SW,235,2.0,13.0,99,-99.99,,,-99.99,,2013-05-23 13:52:00,
2013-05-23 09:02:00,59.0,59.0,-100.00,WSW,250,1.0,11.0,99,-99.99,,,-99.99,,2013-05-23 14:02:00,
2013-05-23 09:11:00,59.0,59.0,-100.00,SW,215,1.0,13.0,99,-99.99,,,-99.99,,2013-05-23 14:11:00,
2013-05-23 09:21:00,59.0,59.0,-100.00,SW,215,1.0,13.0,99,-99.99,,,-99.99,,2013-05-23 14:21:00,
2013-05-23 09:32:00,59.0,59.0,-100.00,SW,230,3.0,14.0,99,-99.99,,,-99.99,,2013-05-23 14:32:00,
2013-05-23 09:42:00,60.0,59.0,-100.00,SW,235,2.0,14.0,99,-99.99,,,-99.99,,2013-05-23 14:42:00,
2013-05-23 09:52:00,60.0,59.0,-100.00,SW,235,2.0,14.0,99,-99.99,,,-99.99,,2013-05-23 14:52:00,
2013-05-23 10:01:00,60.0,60.0,-100.00,SW,235,1.0,13.0,99,-99.99,,,-99.99,,2013-05-23 15:01:00,
2013-05-23 10:11:00,60.0,60.0,-100.00,West,260,1.0,12.0,99,-99.99,,,-99.99,,2013-05-23 15:11:00,
2013-05-23 10:21:00,60.0,60.0,-100.00,West,260,1.0,12.0,99,-99.99,,,-99.99,,2013-05-23 15:21:00,
2013-05-23 10:33:00,60.0,60.0,-100.00,NW,310,4.0,14.0,99,-99.99,,,-99.99,,2013-05-23 15:33:00,
2013-05-23 10:42:00,60.0,60.0,-100.00,West,280,2.0,15.0,99,-99.99,,,-99.99,,2013-05-23 15:42:00,
2013-05-23 10:53:00,60.0,60.0,-100.00,West,280,2.0,15.0,99,-99.99,,,-99.99,,2013-05-23 15:53:00,
2013-05-23 11:03:00,60.0,60.0,-100.00,NNW,335,5.0,17.0,99,-99.99,,,-99.99,,2013-05-23 16:03:00,
2013-05-23 11:12:00,61.0,60.0,-100.00,NW,325,9.0,18.0,99,-99.99,,,-99.99,,2013-05-23 16:12:00,
2013-05-23 11:23:00,61.0,60.0,-100.00,NW,325,9.0,18.0,99,-99.99,,,-99.99,,2013-05-23 16:23:00,
2013-05-23 11:33:00,61.0,61.0,-100.00,NNW,330,0.0,0.0,99,-99.99,,,-99.99,,2013-05-23 16:33:00,
2013-05-23 11:42:00,62.0,61.0,-100.00,NNW,330,0.0,0.0,96,-99.99,,,-99.99,,2013-05-23 16:42:00,
2013-05-23 11:52:00,62.0,61.0,-100.00,NNW,330,0.0,0.0,96,-99.99,,,-99.99,,2013-05-23 16:52:00,
2013-05-23 12:03:00,63.0,61.0,-100.00,NNW,335,8.0,21.0,93,-99.99,,,-99.99,,2013-05-23 17:03:00,
2013-05-23 12:11:00,63.0,60.0,-100.00,NNW,345,0.0,0.0,90,-99.99,,,-99.99,,2013-05-23 17:11:00,
2013-05-23 12:23:00,63.0,60.0,-100.00,NNW,345,0.0,0.0,90,-99.99,,,-99.99,,2013-05-23 17:23:00,
2013-05-23 12:33:00,63.0,60.0,-100.00,North,350,0.0,0.0,90,-99.99,,,-99.99,,2013-05-23 17:33:00,
2013-05-23 12:43:00,62.0,60.0,-100.00,ENE,60,0.0,0.0,93,-99.99,,,-99.99,,2013-05-23 17:43:00,
2013-05-23 12:53:00,62.0,60.0,-100.00,ENE,60,0.0,0.0,93,-99.99,,,-99.99,,2013-05-23 17:53:00,
2013-05-23 13:01:00,62.0,59.0,-100.00,NW,325,0.0,0.0,92,-99.99,,,-99.99,,2013-05-23 18:01:00,
2013-05-23 13:11:00,62.0,59.0,-100.00,North,0,0.0,0.0,90,-99.99,,,-99.99,,2013-05-23 18:11:00,
2013-05-23 13:22:00,62.0,59.0,-100.00,North,0,0.0,0.0,90,-99.99,,,-99.99,,2013-05-23 18:22:00,
2013-05-23 13:32:00,62.0,58.0,-100.00,ENE,60,0.0,0.0,88,-99.99,,,-99.99,,2013-05-23 18:32:00,
2013-05-23 13:42:00,62.0,59.0,-100.00,NNW,335,0.0,0.0,87,-99.99,,,-99.99,,2013-05-23 18:42:00,
2013-05-23 13:52:00,62.0,59.0,-100.00,NNW,335,0.0,0.0,87,-99.99,,,-99.99,,2013-05-23 18:52:00,
2013-05-23 14:01:00,63.0,59.0,-100.00,NNW,340,0.0,0.0,85,-99.99,,,-99.99,,2013-05-23 19:01:00,
2013-05-23 14:11:00,63.0,58.0,-100.00,North,350,0.0,0.0,82,-99.99,,,-99.99,,2013-05-23 19:11:00,
2013-05-23 14:21:00,63.0,58.0,-100.00,North,350,0.0,0.0,82,-99.99,,,-99.99,,2013-05-23 19:21:00,
2013-05-23 14:32:00,63.0,58.0,-100.00,ENE,60,0.0,0.0,84,-99.99,,,-99.99,,2013-05-23 19:32:00,
2013-05-23 14:42:00,63.0,57.0,-100.00,North,355,0.0,0.0,83,-99.99,,,-99.99,,2013-05-23 19:42:00,
2013-05-23 14:52:00,63.0,57.0,-100.00,North,355,0.0,0.0,83,-99.99,,,-99.99,,2013-05-23 19:52:00,
2013-05-23 15:02:00,64.0,58.0,-100.00,ENE,60,0.0,0.0,80,-99.99,,,-99.99,,2013-05-23 20:02:00,
2013-05-23 15:11:00,65.0,58.0,-100.00,North,350,0.0,0.0,77,-99.99,,,-99.99,,2013-05-23 20:11:00,
2013-05-23 15:21:00,65.0,58.0,-100.00,North,350,0.0,0.0,77,-99.99,,,-99.99,,2013-05-23 20:21:00,
2013-05-23 15:32:00,64.0,57.0,-100.00,North,355,0.0,0.0,79,-99.99,,,-99.99,,2013-05-23 20:32:00,
2013-05-23 15:42:00,65.0,59.0,-100.00,ENE,60,0.0,0.0,79,-99.99,,,-99.99,,2013-05-23 20:42:00,
2013-05-23 15:52:00,65.0,59.0,-100.00,ENE,60,0.0,0.0,79,-99.99,,,-99.99,,2013-05-23 20:52:00,
2013-05-23 16:01:00,66.0,57.0,-100.00,North,0,0.0,0.0,74,-99.99,,,-99.99,,2013-05-23 21:01:00,
2013-05-23 16:11:00,67.0,57.0,-100.00,ENE,65,0.0,15.0,70,-99.99,,,-99.99,,2013-05-23 21:11:00,
2013-05-23 16:21:00,67.0,57.0,-100.00,ENE,65,0.0,15.0,70,-99.99,,,-99.99,,2013-05-23 21:21:00,
2013-05-23 16:32:00,66.0,56.0,-100.00,North,355,0.0,0.0,71,-99.99,,,-99.99,,2013-05-23 21:32:00,
2013-05-23 16:43:00,66.0,57.0,-100.00,NNW,330,0.0,0.0,72,-99.99,,,-99.99,,2013-05-23 21:43:00,
2013-05-23 16:53:00,66.0,57.0,-100.00,NNW,330,0.0,0.0,72,-99.99,,,-99.99,,2013-05-23 21:53:00,
2013-05-23 17:03:00,66.0,56.0,-100.00,North,0,0.0,0.0,71,-99.99,,,-99.99,,2013-05-23 22:03:00,
2013-05-23 17:12:00,66.0,56.0,-100.00,ENE,65,0.0,14.0,70,-99.99,,,-99.99,,2013-05-23 22:12:00,
2013-05-23 17:22:00,66.0,56.0,-100.00,ENE,65,0.0,14.0,70,-99.99,,,-99.99,,2013-05-23 22:22:00,
2013-05-23 17:33:00,66.0,55.0,-100.00,NNW,345,0.0,0.0,68,-99.99,,,-99.99,,2013-05-23 22:33:00,
2013-05-23 17:42:00,66.0,54.0,-100.00,East,90,0.0,0.0,66,-99.99,,,-99.99,,2013-05-23 22:42:00,
2013-05-23 17:52:00,66.0,54.0,-100.00,East,90,0.0,0.0,66,-99.99,,,-99.99,,2013-05-23 22:52:00,
2013-05-23 18:01:00,66.0,54.0,-100.00,ENE,75,0.0,0.0,66,-99.99,,,-99.99,,2013-05-23 23:01:00,
2013-05-23 18:11:00,65.0,54.0,-100.00,East,80,0.0,0.0,68,-99.99,,,-99.99,,2013-05-23 23:11:00,
2013-05-23 18:21:00,65.0,54.0,-100.00,East,80,0.0,0.0,68,-99.99,,,-99.99,,2013-05-23 23:21:00,
2013-05-23 18:32:00,65.0,54.0,-100.00,East,80,0.0,0.0,67,-99.99,,,-99.99,,2013-05-23 23:32:00,
2013-05-23 18:42:00,65.0,53.0,-100.00,NW,325,0.0,0.0,66,-99.99,,,-99.99,,2013-05-23 23:42:00,
2013-05-23 18:52:00,65.0,53.0,-100.00,NW,325,0.0,0.0,66,-99.99,,,-99.99,,2013-05-23 23:52:00,
2013-05-23 19:01:00,66.0,54.0,-100.00,ENE,75,0.0,0.0,66,-99.99,,,-99.99,,2013-05-24 00:01:00,
2013-05-23 19:12:00,65.0,53.0,-100.00,NE,40,1.0,8.0,66,-99.99,,,-99.99,,2013-05-24 00:12:00,
2013-05-23 19:21:00,65.0,53.0,-100.00,NE,40,1.0,8.0,66,-99.99,,,-99.99,,2013-05-24 00:21:00,
2013-05-23 19:32:00,64.0,54.0,-100.00,East,95,0.0,8.0,68,-99.99,,,-99.99,,2013-05-24 00:32:00,
2013-05-23 19:42:00,64.0,54.0,-100.00,ESE,110,0.0,10.0,69,-99.99,,,-99.99,,2013-05-24 00:42:00,
2013-05-23 19:52:00,64.0,54.0,-100.00,ESE,110,0.0,10.0,69,-99.99,,,-99.99,,2013-05-24 00:52:00,
2013-05-23 20:01:00,63.0,53.0,-100.00,East,95,0.0,0.0,69,-99.99,,,-99.99,,2013-05-24 01:01:00,
2013-05-23 20:12:00,63.0,53.0,-100.00,East,95,0.0,0.0,70,-99.99,,,-99.99,,2013-05-24 01:12:00,
2013-05-23 20:22:00,63.0,53.0,-100.00,East,95,0.0,0.0,70,-99.99,,,-99.99,,2013-05-24 01:22:00,
2013-05-23 20:32:00,62.0,53.0,-100.00,East,80,0.0,0.0,72,-99.99,,,-99.99,,2013-05-24 01:32:00,
2013-05-23 20:42:00,62.0,54.0,-100.00,East,90,0.0,0.0,75,-99.99,,,-99.99,,2013-05-24 01:42:00,
2013-05-23 20:52:00,62.0,54.0,-100.00,East,90,0.0,0.0,75,-99.99,,,-99.99,,2013-05-24 01:52:00,
2013-05-23 21:01:00,61.0,54.0,-100.00,ESE,110,0.0,0.0,77,-99.99,,,-99.99,,2013-05-24 02:01:00,
2013-05-23 21:11:00,60.0,54.0,-100.00,ESE,110,0.0,0.0,79,-99.99,,,-99.99,,2013-05-24 02:11:00,
2013-05-23 21:21:00,60.0,54.0,-100.00,ESE,110,0.0,0.0,79,-99.99,,,-99.99,,2013-05-24 02:21:00,
2013-05-23 21:32:00,60.0,54.0,-100.00,ESE,105,0.0,0.0,82,-99.99,,,-99.99,,2013-05-24 02:32:00,
2013-05-23 21:42:00,59.0,54.0,-100.00,ESE,110,0.0,0.0,85,-99.99,,,-99.99,,2013-05-24 02:42:00,
2013-05-23 21:52:00,59.0,54.0,-100.00,ESE,110,0.0,0.0,85,-99.99,,,-99.99,,2013-05-24 02:52:00,
2013-05-23 22:02:00,58.0,54.0,-100.00,ESE,105,0.0,0.0,86,-99.99,,,-99.99,,2013-05-24 03:02:00,
2013-05-23 22:11:00,58.0,54.0,-100.00,ESE,105,0.0,0.0,87,-99.99,,,-99.99,,2013-05-24 03:11:00,
2013-05-23 22:22:00,58.0,54.0,-100.00,ESE,105,0.0,0.0,87,-99.99,,,-99.99,,2013-05-24 03:22:00,
2013-05-23 22:33:00,58.0,54.0,-100.00,ESE,110,0.0,0.0,89,-99.99,,,-99.99,,2013-05-24 03:33:00,
2013-05-23 22:42:00,57.0,54.0,-100.00,ESE,110,0.0,0.0,90,-99.99,,,-99.99,,2013-05-24 03:42:00,
2013-05-23 22:53:00,57.0,54.0,-100.00,ESE,110,0.0,0.0,90,-99.99,,,-99.99,,2013-05-24 03:53:00,
2013-05-23 23:03:00,57.0,54.0,-100.00,ESE,110,0.0,0.0,91,-99.99,,,-99.99,,2013-05-24 04:03:00,
2013-05-23 23:12:00,57.0,54.0,-100.00,ESE,110,0.0,0.0,91,-99.99,,,-99.99,,2013-05-24 04:12:00,
2013-05-23 23:22:00,57.0,54.0,-100.00,ESE,110,0.0,0.0,91,-99.99,,,-99.99,,2013-05-24 04:22:00,
2013-05-23 23:33:00,56.0,54.0,-100.00,ESE,105,0.0,0.0,95,-99.99,,,-99.99,,2013-05-24 04:33:00,
2013-05-23 23:42:00,55.0,54.0,-100.00,ESE,105,0.0,0.0,96,-99.99,,,-99.99,,2013-05-24 04:42:00,
2013-05-23 23:53:00,55.0,54.0,-100.00,ESE,105,0.0,0.0,96,-99.99,,,-99.99,,2013-05-24 04:53:00,